Terminal Aerodrome Forecast
Issued by NWS Albany, NY

Home | Current Version | Previous Version | Text Only | Print | Product List | Glossary On
Versions: 1 2 3 4 5 6 7 8 9 10 11 12 13 14 15 16 17 18 19 20 21 22 23
000
FTUS41 KALY 290535
TAFALB
TAF
KALB 290535Z 2906/3006 18005KT P6SM SCT250
     FM290900 VRB02KT 4SM BR BCFG SCT005
     FM291200 19003KT P6SM SCT250
     FM291700 22006KT P6SM FEW060 SCT250
     FM300100 18003KT P6SM SKC=

USA.gov is the U.S. government's official web portal to all federal, state and local government web resources and services.